Manila, Philippines
Current Conditions -  °F | °C
As of 10:00 PM on Thursday 23 Oct 2014 (Local Time) from RPLL Reporting Station
Scattered Clouds Scattered Clouds  
Wind Chill: 81°   Ceiling: Unl
Heat Index: 86°   Visibility: 6mi
Dew Point: 75°   Wind: 3mph
Humidity: 84%   Direction: 110°ESE
Pressure: 29.88"   Gusts: NA
Location:  14.62°N, 120.97°E
Report Text: RPLL 231400Z 11003KT 060V140 9999 SCT025 27/24 Q1012 NOSIG RMKA2988
Loading
Personal Weather Stations






























Interactive Weather Map
Tropical Storm Tracking
New forecast layout! Learn more

10-Day Weather Forecast

Advertisements
Track Severe Weather on mobile